FHAW

Ascension

Airport
ICAO code
FHAW
Summary
ICAO Region
CARSAM
ICAO Territory
Location

Ascension Island,

Coordinates
7° 58' 10" S , 14° 23' 38" W
KCC
Airport BS
Non Avian Wildlife Hazards to Aircraft
Metar
FHAW 210250Z 13009KT 9999 FEW020 28/23 Q1011 NOSIG RMK BLU BLU

Description

International civil/military airport serving the British island of Ascension.

Climatology

(Köppen climate classification Aw)

Runways

Designator Length Width Surface Rops
13/31 3054 46 ASP Yes/Yes

Airport map

Aerial View

SKYbrary Partners:

Safety knowledge contributed by: